Time;durP1;ratioP1;P1;durP2;ratioP2;P2;SDS_P1;SDS_P2;PMS_P1;PMS_P2;Temp;Humidity;BMP_temperature;BMP_pressure;BME280_temperature;BME280_humidity;BME280_pressure;Samples;Min_cycle;Max_cycle;Signal;HPM_P1;HPM_P2
2023/06/01 00:02:51;;;;;;;4.17;2.37;;;17.60;75.60;;;;;;10590894;27;20269;-69
2023/06/01 00:07:54;;;;;;;6.70;2.77;;;17.50;75.70;;;;;;10594351;27;20282;-69
2023/06/01 00:12:54;;;;;;;6.00;2.60;;;17.50;75.90;;;;;;10588583;27;20224;-68
2023/06/01 00:17:55;;;;;;;4.70;2.50;;;17.40;76.00;;;;;;10594384;27;20233;-68
2023/06/01 00:22:57;;;;;;;6.80;2.73;;;17.40;76.40;;;;;;10576004;27;20213;-69
2023/06/01 00:27:57;;;;;;;8.17;2.87;;;17.30;76.80;;;;;;10598508;27;20216;-69
2023/06/01 00:32:58;;;;;;;4.80;2.53;;;17.30;77.10;;;;;;10602266;28;20220;-68
2023/06/01 00:37:58;;;;;;;5.63;2.73;;;17.20;77.30;;;;;;10596970;28;20316;-69
2023/06/01 00:42:59;;;;;;;5.13;2.87;;;17.20;77.60;;;;;;10589505;28;20227;-68
2023/06/01 00:48:00;;;;;;;6.00;2.87;;;17.10;78.10;;;;;;10576491;28;20221;-68
2023/06/01 00:53:05;;;;;;;8.17;3.00;;;17.10;78.70;;;;;;10598851;28;20213;-70
2023/06/01 00:58:06;;;;;;;6.70;2.80;;;17.00;79.10;;;;;;10597842;28;20221;-69
2023/06/01 01:03:13;;;;;;;4.10;2.80;;;16.90;79.30;;;;;;10573482;28;20221;-69
2023/06/01 01:08:30;;;;;;;4.87;2.40;;;16.80;79.70;;;;;;10584140;28;20594;-68
2023/06/01 01:13:41;;;;;;;5.90;2.73;;;16.80;80.10;;;;;;10590048;28;20228;-68
2023/06/01 01:19:08;;;;;;;8.70;2.70;;;16.70;80.30;;;;;;10597019;28;20308;-68
2023/06/01 01:24:22;;;;;;;7.63;2.50;;;16.70;80.70;;;;;;10593773;28;20219;-70
2023/06/01 01:29:25;;;;;;;5.67;2.40;;;16.60;81.10;;;;;;10596720;28;20274;-69
2023/06/01 01:34:28;;;;;;;6.57;2.60;;;16.60;81.40;;;;;;10595453;28;20316;-70
2023/06/01 01:39:29;;;;;;;6.13;2.47;;;16.60;82.00;;;;;;10601242;27;20214;-69
2023/06/01 01:44:30;;;;;;;3.27;2.20;;;16.50;82.20;;;;;;10583928;27;20212;-69
2023/06/01 01:49:40;;;;;;;5.53;2.30;;;16.40;82.60;;;;;;10593578;27;20605;-67
2023/06/01 01:54:46;;;;;;;5.83;2.40;;;16.40;83.00;;;;;;10597333;27;20229;-69
2023/06/01 01:59:47;;;;;;;6.23;2.80;;;16.30;83.70;;;;;;10600785;27;20222;-69
2023/06/01 02:04:47;;;;;;;6.93;2.20;;;16.20;84.40;;;;;;10581892;27;20214;-71
2023/06/01 02:09:48;;;;;;;7.10;2.43;;;16.10;84.80;;;;;;10576985;27;20222;-69
2023/06/01 02:14:48;;;;;;;3.63;2.30;;;16.00;85.70;;;;;;10584550;27;20225;-70
2023/06/01 02:19:49;;;;;;;5.03;2.37;;;16.00;86.70;;;;;;10580760;27;20221;-70
2023/06/01 02:24:49;;;;;;;4.50;2.27;;;15.90;87.40;;;;;;10600859;27;20212;-70
2023/06/01 02:29:50;;;;;;;5.00;2.53;;;15.80;88.10;;;;;;10584477;27;20212;-68
2023/06/01 02:34:54;;;;;;;4.43;2.70;;;15.80;88.70;;;;;;10607175;27;20217;-68
2023/06/01 02:39:54;;;;;;;4.23;2.50;;;15.70;89.20;;;;;;10599851;27;20259;-68
2023/06/01 02:44:55;;;;;;;3.97;2.30;;;15.70;89.70;;;;;;10598554;27;20217;-69
2023/06/01 02:49:55;;;;;;;7.83;2.73;;;15.60;90.10;;;;;;10583711;27;20229;-69
2023/06/01 02:54:56;;;;;;;5.67;2.67;;;15.50;90.30;;;;;;10597760;27;20275;-69
2023/06/01 02:59:56;;;;;;;5.93;2.50;;;15.60;90.60;;;;;;10578947;27;20220;-69
2023/06/01 03:05:00;;;;;;;5.80;2.43;;;15.50;90.80;;;;;;10592351;27;20221;-68
2023/06/01 03:10:00;;;;;;;7.50;2.73;;;15.40;91.20;;;;;;10596037;27;20241;-69
2023/06/01 03:15:01;;;;;;;5.73;2.63;;;15.40;91.50;;;;;;10597417;27;20220;-69
2023/06/01 03:20:02;;;;;;;5.20;2.37;;;15.40;91.80;;;;;;10600523;27;20231;-68
2023/06/01 03:25:06;;;;;;;7.50;3.00;;;15.40;92.00;;;;;;10576023;27;20225;-68
2023/06/01 03:30:10;;;;;;;6.03;2.70;;;15.40;92.20;;;;;;10603988;27;20264;-67
2023/06/01 03:35:12;;;;;;;3.23;2.40;;;15.40;92.30;;;;;;10593068;27;20234;-70
2023/06/01 03:40:12;;;;;;;5.13;2.23;;;15.40;92.60;;;;;;10596674;27;20617;-69
2023/06/01 03:45:16;;;;;;;6.23;2.40;;;15.20;92.80;;;;;;10597717;27;20182;-69
2023/06/01 03:50:16;;;;;;;5.63;2.63;;;15.20;93.20;;;;;;10592523;27;20185;-70
2023/06/01 03:55:17;;;;;;;4.30;2.50;;;15.10;93.40;;;;;;10579724;27;20671;-70
2023/06/01 04:00:18;;;;;;;7.33;2.60;;;15.20;93.60;;;;;;10591138;27;20198;-68
2023/06/01 04:05:20;;;;;;;5.27;2.97;;;15.40;93.20;;;;;;10597948;27;20173;-68
2023/06/01 04:10:21;;;;;;;4.27;2.60;;;15.40;93.30;;;;;;10573201;27;20261;-67
2023/06/01 04:15:22;;;;;;;8.13;2.80;;;15.60;92.90;;;;;;10582621;27;20180;-71
2023/06/01 04:20:23;;;;;;;6.50;2.90;;;15.60;93.10;;;;;;10593119;27;20205;-69
2023/06/01 04:25:24;;;;;;;7.77;3.00;;;15.60;93.10;;;;;;10592403;27;20710;-68
2023/06/01 04:30:25;;;;;;;7.67;3.20;;;15.70;93.00;;;;;;10582657;27;20229;-69
2023/06/01 04:35:26;;;;;;;7.23;2.80;;;15.80;93.00;;;;;;10589580;28;20679;-68
2023/06/01 04:40:26;;;;;;;4.83;2.60;;;16.20;92.80;;;;;;10604998;28;20252;-69
2023/06/01 04:45:30;;;;;;;8.00;2.80;;;16.60;91.60;;;;;;10573505;28;20582;-67
2023/06/01 04:50:31;;;;;;;5.83;2.63;;;16.50;91.50;;;;;;10578518;28;20274;-69
2023/06/01 04:55:32;;;;;;;4.53;3.17;;;16.40;91.90;;;;;;10586721;28;20262;-69
2023/06/01 05:00:32;;;;;;;6.70;2.60;;;16.60;91.90;;;;;;10597422;28;20652;-69
2023/06/01 05:05:34;;;;;;;5.93;2.43;;;18.50;86.80;;;;;;10597290;28;20217;-69
2023/06/01 05:10:34;;;;;;;5.87;2.77;;;20.90;77.10;;;;;;10571639;28;20214;-74
2023/06/01 05:15:35;;;;;;;6.87;2.70;;;22.30;69.60;;;;;;10578283;27;20321;-75
2023/06/01 05:20:35;;;;;;;4.67;2.53;;;22.10;68.70;;;;;;10594066;27;20220;-75
2023/06/01 05:25:36;;;;;;;6.70;2.63;;;22.90;65.60;;;;;;10590076;27;20233;-75
2023/06/01 05:30:36;;;;;;;4.97;2.40;;;24.00;61.80;;;;;;10603215;27;20239;-75
2023/06/01 05:35:37;;;;;;;6.20;3.03;;;24.20;60.50;;;;;;10582975;27;20672;-75
2023/06/01 05:40:37;;;;;;;9.07;4.00;;;24.80;59.00;;;;;;10584816;27;20241;-74
2023/06/01 05:45:38;;;;;;;10.47;4.77;;;25.70;56.30;;;;;;10598651;27;20273;-74
2023/06/01 05:50:40;;;;;;;5.73;3.13;;;26.50;55.30;;;;;;10604545;27;20290;-75
2023/06/01 05:55:41;;;;;;;6.33;3.17;;;26.90;53.50;;;;;;10595786;27;20209;-74
2023/06/01 06:00:41;;;;;;;7.43;3.40;;;26.30;53.70;;;;;;10604227;27;20245;-74
2023/06/01 06:05:42;;;;;;;8.30;3.37;;;26.30;54.30;;;;;;10595964;27;20236;-74
2023/06/01 06:10:43;;;;;;;8.53;3.63;;;27.20;53.60;;;;;;10579027;27;20225;-74
2023/06/01 06:15:43;;;;;;;9.97;3.20;;;28.80;50.20;;;;;;10599813;27;20214;-75
2023/06/01 06:20:44;;;;;;;7.20;3.93;;;28.40;50.10;;;;;;10602637;27;20224;-76
2023/06/01 06:25:45;;;;;;;7.30;2.50;;;28.40;49.50;;;;;;10587668;27;20224;-74
2023/06/01 06:30:46;;;;;;;9.07;2.97;;;28.30;49.80;;;;;;10603854;27;20225;-75
2023/06/01 06:35:46;;;;;;;7.43;2.90;;;28.30;49.80;;;;;;10599086;27;20214;-75
2023/06/01 06:40:47;;;;;;;11.30;3.60;;;30.30;47.00;;;;;;10587378;27;20213;-75
2023/06/01 06:45:48;;;;;;;8.93;2.67;;;29.70;46.40;;;;;;10600891;27;20783;-76
2023/06/01 06:50:50;;;;;;;7.40;2.53;;;28.90;48.20;;;;;;10582581;27;20221;-75
2023/06/01 06:55:51;;;;;;;6.37;2.60;;;29.00;48.20;;;;;;10584681;27;20219;-75
2023/06/01 07:00:51;;;;;;;7.07;2.57;;;29.30;47.20;;;;;;10600972;27;20239;-75
2023/06/01 07:05:52;;;;;;;11.80;3.27;;;29.70;46.70;;;;;;10596561;27;20357;-75
2023/06/01 07:10:55;;;;;;;3.57;2.40;;;30.40;45.60;;;;;;10577638;27;20231;-74
2023/06/01 07:15:56;;;;;;;8.17;3.30;;;32.50;43.80;;;;;;10586506;27;20249;-76
2023/06/01 07:21:01;;;;;;;6.40;2.67;;;32.30;42.70;;;;;;10578079;27;20264;-74
2023/06/01 07:26:01;;;;;;;9.73;2.70;;;32.20;43.10;;;;;;10595624;27;20225;-75
2023/06/01 07:31:03;;;;;;;4.73;1.87;;;32.50;41.40;;;;;;10579511;27;20763;-75
2023/06/01 07:36:06;;;;;;;8.67;2.60;;;34.00;40.90;;;;;;10596617;27;20297;-77
2023/06/01 07:41:21;;;;;;;7.13;2.43;;;35.50;37.40;;;;;;10313500;28;20582;-75
2023/06/01 07:46:21;;;;;;;3.87;2.27;;;34.50;37.60;;;;;;10249955;28;20254;-75
2023/06/01 07:51:22;;;;;;;8.93;2.80;;;34.00;38.30;;;;;;10265914;28;20242;-75
2023/06/01 07:56:26;;;;;;;5.70;2.83;;;33.20;39.50;;;;;;10263692;28;20280;-75
2023/06/01 08:01:28;;;;;;;5.77;2.60;;;33.50;39.60;;;;;;10248022;28;20687;-74
2023/06/01 08:06:35;;;;;;;5.10;2.10;;;35.30;37.70;;;;;;10256063;28;20601;-75
2023/06/01 08:11:36;;;;;;;4.43;2.50;;;35.60;36.70;;;;;;10255137;28;20212;-76
2023/06/01 08:16:37;;;;;;;4.00;2.30;;;34.70;37.30;;;;;;10249158;28;20235;-75
2023/06/01 08:21:37;;;;;;;4.73;2.30;;;33.90;38.60;;;;;;10263355;28;20236;-76
2023/06/01 08:26:38;;;;;;;10.10;2.60;;;34.10;38.30;;;;;;10254123;28;20572;-76
2023/06/01 08:31:39;;;;;;;6.07;2.03;;;33.70;37.60;;;;;;10268024;28;20227;-76
2023/06/01 08:36:39;;;;;;;3.70;2.10;;;34.40;38.50;;;;;;10261968;28;20238;-76
2023/06/01 08:41:45;;;;;;;2.63;2.07;;;34.70;36.90;;;;;;10244668;28;20231;-75
2023/06/01 08:46:46;;;;;;;8.40;3.10;;;37.50;34.70;;;;;;10259765;28;20223;-76
2023/06/01 08:51:49;;;;;;;5.30;2.33;;;38.90;32.00;;;;;;10230716;28;20232;-76
2023/06/01 08:56:50;;;;;;;5.40;2.40;;;39.10;32.30;;;;;;10230930;28;20235;-75
2023/06/01 09:01:53;;;;;;;3.50;2.20;;;39.60;30.10;;;;;;10223849;28;20223;-75
2023/06/01 09:06:53;;;;;;;10.23;3.03;;;41.10;29.20;;;;;;10224675;28;20750;-75
2023/06/01 09:12:25;;;;;;;7.13;2.90;;;40.00;31.40;;;;;;10235119;28;20226;-75
2023/06/01 09:17:26;;;;;;;4.63;2.33;;;39.30;31.50;;;;;;10234966;28;20832;-76
2023/06/01 09:22:45;;;;;;;9.50;2.87;;;38.70;31.70;;;;;;10218576;28;20220;-76
2023/06/01 09:27:56;;;;;;;5.90;2.40;;;38.80;30.80;;;;;;10231794;28;20254;-76
2023/06/01 09:33:19;;;;;;;7.00;2.33;;;38.10;31.70;;;;;;10228745;28;20273;-75
2023/06/01 09:38:25;;;;;;;4.87;2.90;;;39.40;30.60;;;;;;10232638;28;20274;-75
2023/06/01 09:43:26;;;;;;;4.17;2.30;;;41.00;29.00;;;;;;10233515;28;20226;-75
2023/06/01 09:48:29;;;;;;;3.17;2.33;;;41.30;28.60;;;;;;10218594;28;20227;-75
2023/06/01 09:53:43;;;;;;;4.13;2.30;;;39.90;28.80;;;;;;10233318;28;20231;-75
2023/06/01 09:58:43;;;;;;;5.43;2.93;;;37.90;30.30;;;;;;10224589;28;20224;-75
2023/06/01 10:03:50;;;;;;;7.23;3.03;;;39.50;29.80;;;;;;10230805;28;20207;-76
2023/06/01 10:08:53;;;;;;;3.43;2.17;;;38.50;30.40;;;;;;10222655;28;20247;-75
2023/06/01 10:13:56;;;;;;;5.40;2.50;;;39.10;30.20;;;;;;10221289;28;20266;-75
2023/06/01 10:18:57;;;;;;;4.53;2.20;;;38.40;29.80;;;;;;10212528;28;20232;-75
2023/06/01 10:23:58;;;;;;;7.23;2.30;;;37.90;30.20;;;;;;10248103;28;20266;-76
2023/06/01 10:29:03;;;;;;;4.20;2.00;;;40.20;29.30;;;;;;10234626;28;20249;-75
2023/06/01 10:34:09;;;;;;;5.53;2.30;;;38.70;29.70;;;;;;10230297;28;20216;-76
2023/06/01 10:39:26;;;;;;;6.57;2.53;;;40.10;28.00;;;;;;10231484;28;20223;-76
2023/06/01 10:44:39;;;;;;;10.00;2.78;;;41.70;27.70;;;;;;10225058;28;20219;-76
2023/06/01 10:49:49;;;;;;;4.80;2.60;;;44.20;26.30;;;;;;10223827;28;20227;-76
2023/06/01 10:54:49;;;;;;;6.78;2.50;;;42.10;26.90;;;;;;10226520;28;20234;-75
2023/06/01 11:00:13;;;;;;;4.97;2.33;;;41.60;27.00;;;;;;10226620;28;20904;-75
2023/06/01 11:05:36;;;;;;;5.15;2.30;;;41.60;27.90;;;;;;10218834;28;20225;-76
2023/06/01 11:11:02;;;;;;;7.05;2.70;;;43.80;25.00;;;;;;10216987;28;20232;-75
2023/06/01 11:16:20;;;;;;;7.25;2.22;;;43.90;24.90;;;;;;10220054;28;20588;-74
2023/06/01 11:21:21;;;;;;;5.82;2.78;;;43.10;25.60;;;;;;10230199;28;20368;-74
2023/06/01 11:26:25;;;;;;;4.30;2.60;;;41.60;26.40;;;;;;10216165;28;20744;-74
2023/06/01 11:31:26;;;;;;;5.90;2.50;;;40.80;26.20;;;;;;10222946;28;20224;-73
2023/06/01 11:36:27;;;;;;;2.53;2.10;;;38.70;28.00;;;;;;10218377;28;20784;-74
2023/06/01 11:41:28;;;;;;;4.70;2.50;;;37.70;29.20;;;;;;10223579;28;20234;-75
2023/06/01 11:46:30;;;;;;;9.73;2.70;;;35.90;32.00;;;;;;10222932;28;20745;-75
2023/06/01 11:51:37;;;;;;;5.20;2.60;;;33.90;34.10;;;;;;10222701;28;20219;-75
2023/06/01 11:56:41;;;;;;;4.37;2.37;;;32.40;36.30;;;;;;10222901;28;20228;-75
2023/06/01 12:01:44;;;;;;;3.27;2.27;;;31.60;37.00;;;;;;10220774;28;20219;-76
2023/06/01 12:06:45;;;;;;;4.77;2.40;;;31.00;36.90;;;;;;10214919;28;20235;-74
2023/06/01 12:11:46;;;;;;;6.77;2.60;;;30.50;38.20;;;;;;10225222;28;20228;-75
2023/06/01 12:17:05;;;;;;;3.27;2.20;;;29.90;39.00;;;;;;10228547;28;20263;-76
2023/06/01 12:22:06;;;;;;;6.83;2.37;;;29.40;39.00;;;;;;10223005;28;20234;-75
2023/06/01 12:27:15;;;;;;;9.13;2.53;;;29.20;40.40;;;;;;10229961;28;20224;-77
2023/06/01 12:32:19;;;;;;;3.20;2.23;;;29.50;38.90;;;;;;10229006;28;20223;-76
2023/06/01 12:37:20;;;;;;;5.33;2.10;;;29.70;38.10;;;;;;10235448;28;20706;-75
2023/06/01 12:42:37;;;;;;;4.63;2.20;;;29.20;38.30;;;;;;10234100;28;20231;-74
2023/06/01 12:47:41;;;;;;;3.87;2.10;;;29.10;38.10;;;;;;10227109;28;20220;-76
2023/06/01 12:52:43;;;;;;;3.07;1.90;;;28.80;37.20;;;;;;10228512;28;20224;-74
2023/06/01 12:57:43;;;;;;;4.80;2.20;;;28.70;36.90;;;;;;10226710;28;20227;-74
2023/06/01 13:02:47;;;;;;;5.97;2.10;;;28.80;36.20;;;;;;10223660;28;20219;-75
2023/06/01 13:07:48;;;;;;;5.13;2.47;;;28.60;34.00;;;;;;10229438;28;20231;-74
2023/06/01 13:12:49;;;;;;;3.27;2.33;;;28.30;35.30;;;;;;10224251;28;20226;-74
2023/06/01 13:17:50;;;;;;;4.37;1.90;;;28.30;37.20;;;;;;10223577;28;20235;-76
2023/06/01 13:22:52;;;;;;;4.63;2.33;;;28.20;36.70;;;;;;10224702;28;20323;-75
2023/06/01 13:27:53;;;;;;;5.90;2.23;;;28.30;37.80;;;;;;10219810;28;20232;-76
2023/06/01 13:32:54;;;;;;;4.33;2.27;;;28.40;36.10;;;;;;10223681;28;20234;-77
2023/06/01 13:37:55;;;;;;;6.77;2.30;;;28.20;35.00;;;;;;10225520;28;20302;-75
2023/06/01 13:42:57;;;;;;;5.60;2.27;;;28.10;37.80;;;;;;10226667;28;20220;-73
2023/06/01 13:47:58;;;;;;;4.27;2.47;;;28.00;36.70;;;;;;10231367;28;20220;-75
2023/06/01 13:52:59;;;;;;;4.97;2.23;;;28.00;36.80;;;;;;10227636;28;20281;-74
2023/06/01 13:57:59;;;;;;;2.90;2.00;;;28.00;36.60;;;;;;10210873;28;20281;-75
2023/06/01 14:03:03;;;;;;;4.20;2.20;;;27.90;34.40;;;;;;10222810;28;20293;-75
2023/06/01 14:08:04;;;;;;;4.90;2.53;;;28.00;34.20;;;;;;10222162;28;20220;-74
2023/06/01 14:13:05;;;;;;;3.53;2.23;;;27.90;36.10;;;;;;10222721;28;20262;-74
2023/06/01 14:18:05;;;;;;;4.27;2.53;;;28.00;36.20;;;;;;10234255;28;20258;-74
2023/06/01 14:23:08;;;;;;;6.57;2.50;;;28.00;36.90;;;;;;10219643;28;20310;-75
2023/06/01 14:28:09;;;;;;;2.63;2.10;;;27.90;37.90;;;;;;10228050;28;20278;-75
2023/06/01 14:33:10;;;;;;;5.73;2.70;;;27.80;38.20;;;;;;10227485;28;20683;-74
2023/06/01 14:38:11;;;;;;;5.07;2.53;;;27.80;38.50;;;;;;10235185;28;20870;-73
2023/06/01 14:43:12;;;;;;;3.20;2.20;;;27.80;39.00;;;;;;10226136;28;20219;-75
2023/06/01 14:48:12;;;;;;;4.93;2.30;;;27.70;39.70;;;;;;10223625;28;20594;-75
2023/06/01 14:53:13;;;;;;;5.23;2.47;;;27.80;39.40;;;;;;10231753;28;20227;-75
2023/06/01 14:58:13;;;;;;;5.13;2.50;;;27.60;39.50;;;;;;10225292;28;20281;-75
2023/06/01 15:03:15;;;;;;;4.30;2.60;;;27.70;40.30;;;;;;10219214;28;20231;-74
2023/06/01 15:08:15;;;;;;;3.77;2.30;;;27.80;40.70;;;;;;10225021;28;20647;-75
2023/06/01 15:13:16;;;;;;;5.87;2.87;;;28.00;40.90;;;;;;10224476;28;20227;-75
2023/06/01 15:18:16;;;;;;;5.87;2.20;;;28.10;40.20;;;;;;10229966;28;20748;-76
2023/06/01 15:23:18;;;;;;;2.83;1.97;;;28.00;39.90;;;;;;10218277;28;20315;-75
2023/06/01 15:28:19;;;;;;;3.00;2.20;;;27.90;42.30;;;;;;10230535;28;20230;-76
2023/06/01 15:33:20;;;;;;;4.87;2.63;;;28.00;40.70;;;;;;10231690;28;20257;-74
2023/06/01 15:38:21;;;;;;;3.20;2.27;;;28.10;41.80;;;;;;10216310;28;20240;-76
2023/06/01 15:43:22;;;;;;;3.13;2.23;;;28.10;41.90;;;;;;10222861;28;20236;-74
2023/06/01 15:48:22;;;;;;;5.87;2.47;;;28.10;42.60;;;;;;10222192;28;20241;-75
2023/06/01 15:53:23;;;;;;;6.43;2.43;;;28.20;42.70;;;;;;10217062;28;20243;-74
2023/06/01 15:58:23;;;;;;;4.57;2.20;;;28.20;42.20;;;;;;10223751;28;20231;-75
2023/06/01 16:03:24;;;;;;;5.67;2.27;;;27.90;42.70;;;;;;10223865;28;20222;-75
2023/06/01 16:08:25;;;;;;;4.27;2.13;;;28.00;43.70;;;;;;10230136;28;20219;-75
2023/06/01 16:13:25;;;;;;;5.47;2.00;;;27.90;43.60;;;;;;10229515;28;20268;-75
2023/06/01 16:18:26;;;;;;;5.03;2.30;;;27.80;44.00;;;;;;10235811;28;21021;-75
2023/06/01 16:23:26;;;;;;;2.83;2.00;;;27.70;46.10;;;;;;10227562;28;20231;-74
2023/06/01 16:28:27;;;;;;;7.57;3.03;;;27.60;46.40;;;;;;10229507;28;20233;-77
2023/06/01 16:33:28;;;;;;;6.53;3.90;;;27.70;48.40;;;;;;10213586;28;20292;-76
2023/06/01 16:38:28;;;;;;;5.57;3.93;;;27.70;49.60;;;;;;10231897;28;20225;-75
2023/06/01 16:43:29;;;;;;;6.77;4.60;;;27.80;49.50;;;;;;10244096;28;20671;-76
2023/06/01 16:48:29;;;;;;;6.80;4.33;;;27.70;49.00;;;;;;10228146;28;20227;-74
2023/06/01 16:53:30;;;;;;;8.83;5.00;;;27.50;48.70;;;;;;10220769;28;20226;-75
2023/06/01 16:58:31;;;;;;;6.93;4.60;;;27.30;49.10;;;;;;10220943;28;20224;-74
2023/06/01 17:03:31;;;;;;;6.80;5.53;;;27.10;49.70;;;;;;10235813;28;20216;-77
2023/06/01 17:08:32;;;;;;;10.37;6.20;;;26.90;48.30;;;;;;10217851;28;20306;-75
2023/06/01 17:13:33;;;;;;;9.17;6.23;;;26.70;48.10;;;;;;10227784;28;20323;-74
2023/06/01 17:18:33;;;;;;;7.43;6.33;;;26.70;47.90;;;;;;10234295;28;20227;-73
2023/06/01 17:23:34;;;;;;;10.90;6.43;;;26.70;47.00;;;;;;10221451;28;20224;-74
2023/06/01 17:28:37;;;;;;;7.50;5.50;;;26.80;46.50;;;;;;10227578;28;20220;-75
2023/06/01 17:33:38;;;;;;;6.50;4.83;;;26.60;48.00;;;;;;10226743;28;20253;-75
2023/06/01 17:38:39;;;;;;;9.67;4.97;;;26.30;48.10;;;;;;10221150;28;20962;-74
2023/06/01 17:43:40;;;;;;;9.53;5.33;;;26.10;48.40;;;;;;10226998;28;20230;-75
2023/06/01 17:48:41;;;;;;;8.27;5.27;;;25.80;49.00;;;;;;10231813;28;20219;-74
2023/06/01 17:53:41;;;;;;;11.90;4.80;;;25.70;48.80;;;;;;10221136;28;20220;-75
2023/06/01 17:58:45;;;;;;;5.73;4.87;;;25.50;49.30;;;;;;10223359;28;20227;-75
2023/06/01 18:03:45;;;;;;;7.73;4.70;;;25.30;49.80;;;;;;10217987;28;20247;-75
2023/06/01 18:08:46;;;;;;;11.60;5.17;;;25.10;50.50;;;;;;10229905;28;20647;-74
2023/06/01 18:13:49;;;;;;;9.10;4.87;;;24.80;51.10;;;;;;10226658;28;20216;-74
2023/06/01 18:18:49;;;;;;;6.13;4.67;;;24.60;51.20;;;;;;10225940;28;20273;-74
2023/06/01 18:23:50;;;;;;;6.63;4.70;;;24.30;51.50;;;;;;10222837;28;20273;-74
2023/06/01 18:28:50;;;;;;;9.20;4.47;;;24.30;52.00;;;;;;10221554;28;20242;-75
2023/06/01 18:33:51;;;;;;;8.50;4.47;;;24.10;52.30;;;;;;10233087;28;20310;-75
2023/06/01 18:38:52;;;;;;;7.20;4.70;;;23.90;52.70;;;;;;10235476;28;20261;-74
2023/06/01 18:43:52;;;;;;;8.20;5.03;;;23.70;53.30;;;;;;10225924;28;20223;-75
2023/06/01 18:48:53;;;;;;;8.90;4.67;;;23.50;53.80;;;;;;10222045;28;20227;-75
2023/06/01 18:53:53;;;;;;;7.57;4.40;;;23.30;54.50;;;;;;10227708;28;20245;-75
2023/06/01 18:58:54;;;;;;;5.57;4.60;;;23.20;55.10;;;;;;10221307;28;20215;-75
2023/06/01 19:03:55;;;;;;;7.17;4.60;;;23.00;55.40;;;;;;10227690;28;20249;-74
2023/06/01 19:09:00;;;;;;;5.90;4.23;;;22.90;56.00;;;;;;10224451;28;20219;-73
2023/06/01 19:14:01;;;;;;;10.43;4.80;;;22.80;56.50;;;;;;10225228;28;20227;-74
2023/06/01 19:19:03;;;;;;;7.87;4.50;;;22.60;56.30;;;;;;10219789;28;20224;-74
2023/06/01 19:24:10;;;;;;;5.93;4.33;;;22.50;55.90;;;;;;10221595;28;20228;-74
2023/06/01 19:29:12;;;;;;;7.20;4.53;;;22.30;56.20;;;;;;10222766;28;20246;-75
2023/06/01 19:34:13;;;;;;;7.50;4.43;;;22.20;56.70;;;;;;10224514;28;20689;-75
2023/06/01 19:39:44;;;;;;;7.87;4.33;;;22.00;57.20;;;;;;10224772;28;20252;-74
2023/06/01 19:44:45;;;;;;;5.80;4.73;;;21.80;57.80;;;;;;10217286;28;20353;-74
2023/06/01 19:49:45;;;;;;;8.60;4.50;;;21.70;58.00;;;;;;10219884;28;20714;-74
2023/06/01 19:54:46;;;;;;;7.97;4.70;;;21.60;58.40;;;;;;10230104;28;20227;-75
2023/06/01 19:59:46;;;;;;;5.77;4.47;;;21.40;58.30;;;;;;10224597;28;20315;-75
2023/06/01 20:04:47;;;;;;;6.97;4.50;;;21.30;58.50;;;;;;10229766;28;20245;-74
2023/06/01 20:09:49;;;;;;;7.60;4.70;;;21.20;58.80;;;;;;10223073;28;20227;-73
2023/06/01 20:14:50;;;;;;;8.37;4.50;;;21.00;59.10;;;;;;10215133;28;20289;-74
2023/06/01 20:19:52;;;;;;;6.80;4.80;;;20.90;59.10;;;;;;10218923;28;20643;-74
2023/06/01 20:24:52;;;;;;;7.17;4.50;;;20.80;59.30;;;;;;10227158;28;20220;-76
2023/06/01 20:29:53;;;;;;;6.83;4.70;;;20.70;59.60;;;;;;10231921;28;20231;-75
2023/06/01 20:34:54;;;;;;;8.60;5.07;;;20.50;60.00;;;;;;10229730;28;20719;-74
2023/06/01 20:39:54;;;;;;;6.77;4.40;;;20.50;60.90;;;;;;10222794;28;20251;-74
2023/06/01 20:44:55;;;;;;;8.20;4.83;;;20.30;61.70;;;;;;10229620;28;20233;-74
2023/06/01 20:49:55;;;;;;;8.17;5.53;;;20.20;62.40;;;;;;10233921;28;20319;-74
2023/06/01 20:54:57;;;;;;;9.23;5.03;;;20.10;63.10;;;;;;10225177;28;20276;-75
2023/06/01 20:59:57;;;;;;;9.23;4.97;;;20.00;64.00;;;;;;10224397;28;20270;-74
2023/06/01 21:04:58;;;;;;;8.90;5.13;;;19.80;65.30;;;;;;10233673;28;20231;-74
2023/06/01 21:09:58;;;;;;;9.67;5.00;;;19.70;66.10;;;;;;10224913;28;20262;-75
2023/06/01 21:14:59;;;;;;;10.47;5.27;;;19.50;67.00;;;;;;10227173;28;20220;-75
2023/06/01 21:19:59;;;;;;;8.60;5.30;;;19.40;67.90;;;;;;10223550;28;20231;-75
2023/06/01 21:25:00;;;;;;;8.60;5.67;;;19.20;68.70;;;;;;10223855;28;20258;-75
2023/06/01 21:30:01;;;;;;;9.13;5.90;;;19.10;69.80;;;;;;10220400;28;20861;-74
2023/06/01 21:35:01;;;;;;;10.03;6.20;;;18.80;70.90;;;;;;10228817;28;20290;-74
2023/06/01 21:40:02;;;;;;;7.17;5.70;;;18.70;71.60;;;;;;10230831;28;20260;-74
2023/06/01 21:45:03;;;;;;;8.83;5.67;;;18.50;72.60;;;;;;10223416;28;20227;-75
2023/06/01 21:50:08;;;;;;;9.10;6.10;;;18.30;73.20;;;;;;10231077;28;20318;-74
2023/06/01 21:55:08;;;;;;;9.37;6.50;;;18.20;73.90;;;;;;10227578;28;20215;-76
2023/06/01 22:00:12;;;;;;;8.57;6.40;;;17.90;74.70;;;;;;10226699;28;20295;-74
2023/06/01 22:05:16;;;;;;;9.77;6.87;;;17.80;75.40;;;;;;10227605;28;20198;-75
2023/06/01 22:10:19;;;;;;;7.97;6.67;;;17.60;76.20;;;;;;10234818;28;20697;-74
2023/06/01 22:15:20;;;;;;;10.40;6.67;;;17.40;77.10;;;;;;10226935;28;20184;-75
2023/06/01 22:20:21;;;;;;;10.77;6.70;;;17.20;78.10;;;;;;10233747;28;20627;-74
2023/06/01 22:25:21;;;;;;;8.20;6.60;;;17.00;79.40;;;;;;10226866;28;20514;-74
2023/06/01 22:30:22;;;;;;;8.37;7.20;;;16.80;80.80;;;;;;10225696;28;20219;-73
2023/06/01 22:35:23;;;;;;;10.57;6.67;;;16.70;81.30;;;;;;10228766;28;20199;-74
2023/06/01 22:40:24;;;;;;;9.90;6.50;;;16.50;82.50;;;;;;10234972;28;20215;-75
2023/06/01 22:45:25;;;;;;;8.67;6.87;;;16.40;83.70;;;;;;10224584;28;20263;-74
2023/06/01 22:50:26;;;;;;;9.40;6.63;;;16.20;84.70;;;;;;10208868;28;20326;-73
2023/06/01 22:55:26;;;;;;;9.60;7.20;;;16.00;85.50;;;;;;10225014;28;20219;-74
2023/06/01 23:00:27;;;;;;;11.30;7.20;;;15.90;86.50;;;;;;10233109;28;20219;-75
2023/06/01 23:05:28;;;;;;;9.43;7.43;;;15.70;87.70;;;;;;10233587;28;20227;-73
2023/06/01 23:10:29;;;;;;;8.83;7.10;;;15.60;88.40;;;;;;10216808;28;20227;-74
2023/06/01 23:15:30;;;;;;;10.77;6.93;;;15.60;88.90;;;;;;10224250;28;20200;-74
2023/06/01 23:20:35;;;;;;;9.27;7.23;;;15.50;89.50;;;;;;10224539;28;20324;-74
2023/06/01 23:25:38;;;;;;;8.30;7.27;;;15.40;90.10;;;;;;10217749;28;20235;-75
2023/06/01 23:30:40;;;;;;;9.13;7.47;;;15.30;90.40;;;;;;10231970;28;20227;-74
2023/06/01 23:35:40;;;;;;;8.50;6.97;;;15.20;90.60;;;;;;10230446;28;20227;-74
2023/06/01 23:40:41;;;;;;;10.47;7.20;;;15.20;90.90;;;;;;10215162;28;20245;-73
2023/06/01 23:45:42;;;;;;;9.37;7.27;;;15.20;91.20;;;;;;10216237;28;20234;-73
2023/06/01 23:50:42;;;;;;;9.10;6.40;;;15.10;91.40;;;;;;10228091;28;20258;-73
2023/06/01 23:55:43;;;;;;;7.23;6.53;;;15.00;91.80;;;;;;10232736;28;20239;-74
